Webcam Webcam


Onweer radar blitzortung!


waarschuwing voor winterse neerslag rain snow radar


U vindt ons ook hier:

Het Weer Aktueel

European Weather Network

AWEKAS

Weather Underground


Sneeuw/IJzel/Bevriezing van: 16-01-2018 22:00 tot: 17-01-2018 11:59 waarschuwing voor: Sneeuw/IJzel/Bevriezing niveau: Geel info button
Kans op lokale gladheid door winterse buien, vannacht en morgenochtend mogelijk ook door bevriezing van natte weggedeelten.Kans op gladheid. Alle verkeersdeelnemers kunnen hinder ondervinden. Pas uw rijgedrag aan. Volg weerberichten en waarschuwingen.

METAR rapporten vliegvelden

  
EHVK - Volkel, Noord Brabant, NL
Gewijzigd: 16-01-2018 23:55
Bewolking
Bewolking  
 Wind vanuit ZW
Wind: ZW 20 km/h
Temperatuur:  3°C
Voelt als:  -2°C
Dauwpunt:  0°C
Vochtigheid:  81%
Barometer:  992 hPa
Bewolking:  Bewolking
Zicht:  10 km
Bewolking:  Bewolking 4572 m
2018/01/16 22:55 EHVK 162255Z AUTO 22011KT 190V250 9999 OVC150 03/00 Q0992 BLU
EHEH - Eindhoven, Noord Brabant, NL
Gewijzigd: 16-01-2018 23:55
Gedeeltelijk bewolkt
Gedeeltelijk bewolkt  
 Wind vanuit ZZW
Wind: ZZW 20 km/h
Temperatuur:  4°C
Voelt als:  -1°C
Dauwpunt:  1°C
Vochtigheid:  81%
Barometer:  992 hPa
Bewolking:  Gedeeltelijk bewolkt
Zicht:  10 km
Bewolking:  Licht bewolkt 792 m
Gedeeltelijk bewolkt 3353 m
2018/01/16 22:55 EHEH 162255Z AUTO 21011KT 9999 FEW026 SCT110 04/01 Q0992 BLU
EHGR - Gilze Rijen, Noord Brabant, NL
Gewijzigd: 16-01-2018 23:55
Bewolking
Bewolking  
 Wind vanuit ZZW
Wind: ZZW 17 km/h
Temperatuur:  4°C
Voelt als:  0°C
Dauwpunt:  1°C
Vochtigheid:  81%
Barometer:  992 hPa
Bewolking:  Bewolking
Zicht:  10 km
Bewolking:  Licht bewolkt 914 m
Gedeeltelijk bewolkt 1798 m
Bewolking 4267 m
2018/01/16 22:55 EHGR 162255Z AUTO 21009KT 180V260 9999 FEW030 SCT059 OVC140 04/01 Q0992 BLU
EHWO - Woensdrecht, Noord Brabant, NL
Gewijzigd: 16-01-2018 23:55
Wat regen, Grotendeels bewolkt
Wat regen, Grotendeels bewolkt  
 Wind vanuit ZW
Wind: ZW 15 km/h
Temperatuur:  5°C
Voelt als:  2°C
Dauwpunt:  2°C
Vochtigheid:  81%
Barometer:  992 hPa
Samenvatting:  Wat regen mogelijk
Bewolking:  Grotendeels bewolkt
Zicht:  10 km
Bewolking:  Licht bewolkt 701 m
Grotendeels bewolkt 823 m
Grotendeels bewolkt 945 m
2018/01/16 22:55 EHWO 162255Z AUTO 23008KT 200V260 9999 -RA FEW023 BKN027 BKN031 05/02 Q0992 BLU
EHBK - Maastricht, Limburg, NL
Gewijzigd: 16-01-2018 23:55
Grotendeels bewolkt
Grotendeels bewolkt  
 Wind vanuit ZW
Wind: ZW 28 km/h
Temperatuur:  4°C
Voelt als:  -1°C
Dauwpunt:  2°C
Vochtigheid:  87%
Barometer:  994 hPa
Bewolking:  Grotendeels bewolkt
Zicht:  10 km
Bewolking:  Licht bewolkt 732 m
Gedeeltelijk bewolkt 823 m
Grotendeels bewolkt 945 m
2018/01/16 22:55 EHBK 162255Z AUTO 22015KT 9999 FEW024 SCT027 BKN031 04/02 Q0994
EHDL - Arnhem/Deelen, Gelderland, NL
Gewijzigd: 16-01-2018 23:55
Kleine regenbuien, Grotendeels bewolkt
Kleine regenbuien, Grotendeels bewolkt  
 Wind vanuit ZW
Wind: ZW 20 km/h, Windvlaag: 41 km/h
Temperatuur:  3°C
Voelt als:  -2°C
Dauwpunt:  1°C
Vochtigheid:  87%
Barometer:  991 hPa
Samenvatting:  Kleine regenbuien
Bewolking:  Grotendeels bewolkt
Zicht:  9 km
Bewolking:  Licht bewolkt 366 m
Licht bewolkt 457 m
Gedeeltelijk bewolkt 518 m
Grotendeels bewolkt 701 m
2018/01/16 22:55 EHDL 162255Z AUTO 22011G22KT 160V310 9000 -SHRA FEW012 FEW015CB SCT017 BKN023 03/01 Q0991 WHT
EHAM - Amsterdam/Schiphol, Noord Holland, NL
Gewijzigd: 16-01-2018 23:55
Thunderstorm rain small hail, Grotendeels bewolkt
Thunderstorm rain small hail, Grotendeels bewolkt  
 Wind vanuit W
Wind: W 41 km/h
Temperatuur:  4°C
Voelt als:  -2°C
Dauwpunt:  0°C
Vochtigheid:  75%
Barometer:  990 hPa
Samenvatting:  Thunderstorm Rain Small Hail
Bewolking:  Grotendeels bewolkt
Zicht:  8 km
Bewolking:  Licht bewolkt 457 m
Gedeeltelijk bewolkt 610 m
Grotendeels bewolkt 1067 m
2018/01/16 22:55 EHAM 162255Z 27022KT 240V300 8000 TSRAGS FEW015 SCT020CB BKN035 04/00 Q0990 TEMPO 6000
EHGG - Groningen/Eelde, Groningen, NL
Gewijzigd: 16-01-2018 23:55
Gedeeltelijk bewolkt
Gedeeltelijk bewolkt  
 Wind vanuit ZW
Wind: ZW 15 km/h
Temperatuur:  1°C
Voelt als:  -3°C
Dauwpunt:  0°C
Vochtigheid:  93%
Barometer:  989 hPa
Bewolking:  Gedeeltelijk bewolkt
Zicht:  10 km
2018/01/16 22:55 EHGG 162255Z AUTO 23008KT 9999 NSC 01/00 Q0989
EHLW - Leeuwarden, Friesland, NL
Gewijzigd: 16-01-2018 23:55
Grotendeels bewolkt
Grotendeels bewolkt  
 Wind vanuit WZW
Wind: WZW 26 km/h
Temperatuur:  4°C
Voelt als:  -1°C
Dauwpunt:  0°C
Vochtigheid:  75%
Barometer:  988 hPa
Bewolking:  Grotendeels bewolkt
Zicht:  10 km
Bewolking:  Licht bewolkt 457 m
Gedeeltelijk bewolkt 1433 m
Grotendeels bewolkt 1585 m
2018/01/16 22:55 EHLW 162255Z AUTO 25014KT 9999 FEW015CB SCT047 BKN052 04/00 Q0988 BLU
EHKD - De Kooy, Noord Holland, NL
Gewijzigd: 16-01-2018 23:55
Grotendeels bewolkt
Grotendeels bewolkt  
 Wind vanuit W
Wind: W 43 km/h
Temperatuur:  5°C
Voelt als:  -1°C
Dauwpunt:  0°C
Vochtigheid:  70%
Barometer:  988 hPa
Bewolking:  Grotendeels bewolkt
Zicht:  10 km
Bewolking:  Gedeeltelijk bewolkt 792 m
Grotendeels bewolkt 914 m
Grotendeels bewolkt 1097 m
2018/01/16 22:55 EHKD 162255Z AUTO 27023KT 230V290 9999 SCT026 BKN030 BKN036 05/00 Q0988 BLU
EHRD - Rotterdam, Zuid Holland, NL
Gewijzigd: 16-01-2018 23:55
Grotendeels bewolkt
Grotendeels bewolkt  
 Wind vanuit W
Wind: W 26 km/h
Temperatuur:  5°C
Voelt als:  1°C
Dauwpunt:  2°C
Vochtigheid:  81%
Barometer:  991 hPa
Bewolking:  Grotendeels bewolkt
Zicht:  10 km
Bewolking:  Licht bewolkt 732 m
Gedeeltelijk bewolkt 884 m
Grotendeels bewolkt 1433 m
2018/01/16 22:55 EHRD 162255Z AUTO 26014KT 230V290 9999 FEW024/// SCT029/// BKN047/// 05/02 Q0991 TEMPO 7000 -SHRA
EHFS - Vlissingen, Zeeland, NL
Gewijzigd: 16-01-2018 23:25
Bewolking
Bewolking  
 Wind vanuit W
Wind: W 41 km/h
Temperatuur:  6°C
Voelt als:  1°C
Dauwpunt:  3°C
Vochtigheid:  81%
Barometer:  992 hPa
Bewolking:  Bewolking
Zicht:  10 km
Bewolking:  Gedeeltelijk bewolkt 640 m
Grotendeels bewolkt 762 m
Bewolking 853 m
2018/01/16 22:25 EHFS 162225Z AUTO 26022KT 9999 SCT021/// BKN025/// OVC028/// 06/03 Q0992 W///H///

Script ontwikkeld door   Saratoga-weather.org Aangepast voor de template door  Weerstation Leuven

Apparatuur in gebruik:


Weerstation
Davis VP2

Weerprogramma
WeatherLink

Weercomputer
Sponsor

Webleverancier

Davis VP2

WeatherLink

Sponsor